Time;durP1;ratioP1;P1;durP2;ratioP2;P2;SDS_P1;SDS_P2;PMS_P1;PMS_P2;Temp;Humidity;BMP_temperature;BMP_pressure;BME280_temperature;BME280_humidity;BME280_pressure;Samples;Min_cycle;Max_cycle;Signal;HPM_P1;HPM_P2
2023/09/25 00:00:23;;;;;;;20.60;11.90;;;;;;;18.23;66.18;101128.81;88470;281;136830;-77
2023/09/25 00:02:26;;;;;;;22.20;12.30;;;;;;;18.23;66.09;101130.07;88638;282;22543;-74
2023/09/25 00:04:28;;;;;;;18.60;13.70;;;;;;;18.23;66.25;101128.86;88688;282;136535;-79
2023/09/25 00:06:31;;;;;;;19.00;12.80;;;;;;;18.22;66.40;101132.65;88762;281;22517;-79
2023/09/25 00:08:33;;;;;;;22.50;12.50;;;;;;;18.20;66.43;101128.80;88728;280;138967;-78
2023/09/25 00:10:36;;;;;;;24.50;12.20;;;;;;;18.17;66.51;101128.45;88819;278;23806;-78
2023/09/25 00:12:38;;;;;;;21.30;13.00;;;;;;;18.17;66.60;101131.35;88445;283;136713;-78
2023/09/25 00:14:40;;;;;;;25.40;13.30;;;;;;;18.16;66.59;101133.11;88598;273;25116;-78
2023/09/25 00:16:42;;;;;;;18.50;11.70;;;;;;;18.17;66.76;101136.70;88586;281;138078;-77
2023/09/25 00:18:44;;;;;;;16.90;12.90;;;;;;;18.15;67.38;101136.31;89064;282;22555;-78
2023/09/25 00:20:46;;;;;;;18.50;12.00;;;;;;;18.10;67.11;101134.42;88992;282;137116;-76
2023/09/25 00:22:48;;;;;;;14.20;11.60;;;;;;;18.08;67.76;101135.39;89230;273;24055;-77
2023/09/25 00:24:50;;;;;;;19.80;12.50;;;;;;;18.05;67.81;101127.12;88758;273;136547;-73
2023/09/25 00:26:52;;;;;;;20.30;14.20;;;;;;;18.02;67.75;101127.14;88534;274;25104;-77
2023/09/25 00:28:54;;;;;;;18.10;13.10;;;;;;;18.00;67.73;101123.59;88681;280;137433;-74
2023/09/25 00:30:57;;;;;;;18.90;12.50;;;;;;;17.98;68.34;101128.91;88886;280;22557;-76
2023/09/25 00:33:00;;;;;;;17.40;12.70;;;;;;;17.96;68.99;101136.54;88544;281;136748;-78
2023/09/25 00:35:06;;;;;;;18.70;12.60;;;;;;;17.90;69.82;101146.05;88558;282;22709;-77
2023/09/25 00:37:08;;;;;;;16.90;11.60;;;;;;;17.81;71.18;101157.66;88560;281;137956;-77
2023/09/25 00:39:10;;;;;;;17.50;12.60;;;;;;;17.69;71.84;101151.92;88808;280;25116;-77
2023/09/25 00:41:12;;;;;;;16.30;11.80;;;;;;;17.60;72.46;101158.43;88603;282;137685;-76
2023/09/25 00:43:15;;;;;;;21.50;12.70;;;;;;;17.53;73.34;101160.51;88704;279;22641;-75
2023/09/25 00:45:18;;;;;;;17.40;13.60;;;;;;;17.44;73.81;101156.85;88553;273;136654;-76
2023/09/25 00:47:20;;;;;;;16.30;11.90;;;;;;;17.40;74.13;101152.34;88643;281;24094;-77
2023/09/25 00:49:22;;;;;;;15.30;12.60;;;;;;;17.39;75.10;101150.61;88561;274;137343;-77
2023/09/25 00:51:23;;;;;;;18.60;12.40;;;;;;;17.36;75.56;101154.77;88621;273;24946;-76
2023/09/25 00:53:28;;;;;;;26.60;14.00;;;;;;;17.33;75.94;101149.20;88508;273;137235;-74
2023/09/25 00:55:30;;;;;;;13.70;12.30;;;;;;;17.33;76.42;101147.23;88739;279;22901;-78
2023/09/25 00:57:35;;;;;;;13.40;11.90;;;;;;;17.35;76.64;101147.27;88537;278;137105;-77
2023/09/25 00:59:39;;;;;;;24.00;12.60;;;;;;;17.36;76.67;101150.70;88735;275;22541;-78
2023/09/25 01:01:42;;;;;;;17.50;12.60;;;;;;;17.33;76.80;101149.98;88693;279;137046;-78
2023/09/25 01:03:43;;;;;;;17.80;12.30;;;;;;;17.30;76.95;101155.04;88964;277;23621;-76
2023/09/25 01:05:46;;;;;;;14.20;12.50;;;;;;;17.27;77.23;101152.58;88917;280;138052;-78
2023/09/25 01:07:48;;;;;;;17.30;11.60;;;;;;;17.24;77.66;101153.15;88883;280;24170;-79
2023/09/25 01:10:03;;;;;;;16.10;12.70;;;;;;;17.22;78.10;101158.35;88762;280;136728;-76
2023/09/25 01:12:06;;;;;;;16.30;12.50;;;;;;;17.16;78.14;101155.26;88572;281;136409;-76
2023/09/25 01:14:09;;;;;;;17.60;12.60;;;;;;;17.13;78.25;101160.40;88787;279;24023;-72
2023/09/25 01:16:11;;;;;;;17.70;12.60;;;;;;;17.12;78.81;101157.79;88591;281;137470;-77
2023/09/25 01:18:14;;;;;;;13.80;12.20;;;;;;;17.12;78.85;101156.64;88700;281;25089;-80
2023/09/25 01:20:17;;;;;;;16.70;12.00;;;;;;;17.11;79.07;101156.60;88523;274;139021;-79
2023/09/25 01:22:19;;;;;;;16.00;12.30;;;;;;;17.10;79.43;101156.52;88723;277;25188;-77
2023/09/25 01:24:21;;;;;;;13.60;11.60;;;;;;;17.09;79.65;101154.69;88675;280;136773;-74
2023/09/25 01:26:23;;;;;;;17.80;12.50;;;;;;;16.99;79.82;101141.83;88668;281;22545;-81
2023/09/25 01:30:21;;;;;;;14.80;12.50;;;;;;;17.00;80.76;101156.63;87071;305;602646;-77
2023/09/25 01:32:23;;;;;;;14.70;13.20;;;;;;;16.98;80.73;101159.11;88184;292;135977;-77
2023/09/25 01:34:26;;;;;;;13.90;12.00;;;;;;;16.95;81.62;101161.45;88057;288;22840;-78
2023/09/25 01:36:28;;;;;;;16.80;13.00;;;;;;;16.84;82.01;101163.48;88062;295;135683;-74
2023/09/25 01:38:30;;;;;;;16.00;12.40;;;;;;;16.76;82.67;101159.54;88276;287;25335;-78
2023/09/25 01:40:32;;;;;;;19.70;13.30;;;;;;;16.75;82.75;101159.88;88320;284;136689;-79
2023/09/25 01:42:34;;;;;;;15.30;12.20;;;;;;;16.70;82.83;101162.56;88528;284;26186;-80
2023/09/25 01:44:36;;;;;;;13.30;11.80;;;;;;;16.70;83.26;101168.40;88139;281;579194;-79
2023/09/25 01:46:42;;;;;;;12.80;11.10;;;;;;;16.72;83.87;101171.88;89073;281;22322;-73
2023/09/25 01:48:44;;;;;;;14.10;11.50;;;;;;;16.66;83.92;101170.89;88796;281;138092;-72
2023/09/25 01:50:45;;;;;;;17.00;12.10;;;;;;;16.67;84.48;101174.91;88652;283;26282;-77
2023/09/25 01:52:51;;;;;;;16.70;11.90;;;;;;;16.64;84.87;101175.13;88551;283;137223;-75
2023/09/25 01:54:52;;;;;;;15.40;12.70;;;;;;;16.60;85.79;101170.44;88794;274;23350;-73
2023/09/25 01:56:54;;;;;;;15.70;13.00;;;;;;;16.58;86.32;101170.69;88524;282;136837;-76
2023/09/25 01:58:56;;;;;;;14.70;11.50;;;;;;;16.57;86.69;101173.27;88601;279;22549;-76
2023/09/25 02:00:58;;;;;;;15.70;12.00;;;;;;;16.54;86.96;101174.04;88608;282;136988;-75
2023/09/25 02:03:00;;;;;;;16.50;12.30;;;;;;;16.54;87.14;101176.92;88841;281;26174;-77
2023/09/25 02:05:03;;;;;;;14.10;12.70;;;;;;;16.52;87.43;101179.06;88593;276;137020;-76
2023/09/25 02:07:05;;;;;;;19.30;12.60;;;;;;;16.53;87.32;101178.39;88894;279;22471;-75
2023/09/25 02:09:07;;;;;;;20.80;14.70;;;;;;;16.54;87.58;101177.27;88426;283;137688;-75
2023/09/25 02:11:10;;;;;;;20.50;14.20;;;;;;;16.61;87.36;101176.85;88791;276;22527;-77
2023/09/25 02:13:12;;;;;;;14.50;13.00;;;;;;;16.63;87.14;101173.63;88706;283;136297;-73
2023/09/25 02:15:14;;;;;;;19.40;15.20;;;;;;;16.62;86.82;101178.43;89118;281;22539;-79
2023/09/25 02:17:15;;;;;;;23.40;13.90;;;;;;;16.61;87.07;101181.33;89051;282;136053;-77
2023/09/25 02:19:19;;;;;;;16.20;14.40;;;;;;;16.62;86.75;101182.15;89438;281;23670;-75
2023/09/25 02:21:22;;;;;;;20.00;14.30;;;;;;;16.65;86.53;101185.35;88778;283;137180;-76
2023/09/25 02:23:24;;;;;;;15.00;12.90;;;;;;;16.71;86.37;101188.65;88783;283;25083;-80
2023/09/25 02:25:26;;;;;;;17.70;14.20;;;;;;;16.73;86.25;101190.52;88642;281;137588;-77
2023/09/25 02:27:27;;;;;;;17.00;12.50;;;;;;;16.74;86.18;101188.25;88799;283;25118;-76
2023/09/25 02:29:29;;;;;;;16.30;13.70;;;;;;;16.75;86.19;101189.56;89022;282;138662;-76
2023/09/25 02:31:31;;;;;;;14.30;12.10;;;;;;;16.73;86.06;101186.95;89175;282;21832;-77
2023/09/25 02:33:34;;;;;;;17.00;12.80;;;;;;;16.72;86.25;101189.27;88885;281;137127;-76
2023/09/25 02:35:37;;;;;;;14.30;12.60;;;;;;;16.69;86.69;101185.05;88755;282;25188;-78
2023/09/25 02:37:40;;;;;;;20.20;13.70;;;;;;;16.62;87.70;101187.66;88784;279;136831;-79
2023/09/25 02:39:44;;;;;;;17.90;12.90;;;;;;;16.61;87.91;101183.98;88750;279;22537;-77
2023/09/25 02:41:46;;;;;;;16.40;13.80;;;;;;;16.58;88.43;101186.88;88474;275;137024;-71
2023/09/25 02:43:48;;;;;;;17.70;13.50;;;;;;;16.49;88.88;101183.44;88616;275;22809;-76
2023/09/25 02:45:52;;;;;;;24.30;14.00;;;;;;;16.44;88.90;101185.71;88594;278;138321;-77
2023/09/25 02:47:54;;;;;;;16.40;13.20;;;;;;;16.43;89.40;101184.19;88628;283;23011;-75
2023/09/25 02:49:56;;;;;;;21.50;13.90;;;;;;;16.40;89.53;101186.09;88584;274;136833;-74
2023/09/25 02:51:58;;;;;;;15.20;13.50;;;;;;;16.34;90.25;101183.30;88794;281;25201;-78
2023/09/25 02:54:00;;;;;;;16.70;12.90;;;;;;;16.34;90.28;101185.48;88500;276;136695;-75
2023/09/25 02:56:02;;;;;;;19.40;13.80;;;;;;;16.35;90.50;101184.59;88656;279;23725;-67
2023/09/25 02:58:05;;;;;;;20.00;13.40;;;;;;;16.31;90.88;101182.94;88626;281;25124;-78
2023/09/25 03:00:11;;;;;;;14.60;13.10;;;;;;;16.37;90.72;101181.08;88673;281;136760;-77
2023/09/25 03:02:14;;;;;;;20.10;14.00;;;;;;;16.39;90.60;101183.40;88834;282;25210;-79
2023/09/25 03:04:16;;;;;;;18.70;13.80;;;;;;;16.35;91.04;101184.67;88637;282;136405;-80
2023/09/25 03:06:18;;;;;;;16.20;14.30;;;;;;;16.37;91.69;101189.12;88754;283;26394;-77
2023/09/25 03:08:21;;;;;;;15.70;13.80;;;;;;;16.35;91.81;101191.72;88482;282;136622;-76
2023/09/25 03:10:23;;;;;;;16.30;14.10;;;;;;;16.30;91.83;101188.89;89521;282;25157;-75
2023/09/25 03:12:26;;;;;;;19.20;13.90;;;;;;;16.22;92.27;101189.55;88830;275;138134;-77
2023/09/25 03:14:28;;;;;;;17.60;15.00;;;;;;;16.17;92.71;101187.60;89545;283;22701;-74
2023/09/25 03:16:30;;;;;;;16.00;14.20;;;;;;;16.12;93.16;101186.55;90145;280;136840;-76
2023/09/25 03:18:32;;;;;;;25.20;14.70;;;;;;;16.08;93.35;101185.96;90553;281;24534;-77
2023/09/25 03:20:34;;;;;;;20.20;13.60;;;;;;;16.02;93.59;101184.26;90578;282;138454;-76
2023/09/25 03:22:36;;;;;;;14.50;12.50;;;;;;;15.97;94.18;101185.58;90397;282;22542;-75
2023/09/25 03:24:38;;;;;;;19.70;14.20;;;;;;;15.94;94.58;101192.89;90761;283;136510;-77
2023/09/25 03:26:40;;;;;;;17.10;11.80;;;;;;;15.90;95.03;101192.48;90914;282;22549;-76
2023/09/25 03:28:45;;;;;;;15.90;13.00;;;;;;;15.88;95.30;101194.05;90757;283;136365;-75
2023/09/25 03:30:48;;;;;;;23.80;13.90;;;;;;;15.88;95.43;101197.46;91083;282;22536;-77
2023/09/25 03:32:54;;;;;;;23.90;13.90;;;;;;;15.90;95.56;101197.45;90941;280;136523;-78
2023/09/25 03:34:57;;;;;;;21.20;13.90;;;;;;;15.94;95.52;101195.45;89880;281;24024;-76
2023/09/25 03:36:59;;;;;;;17.90;12.90;;;;;;;15.97;95.42;101194.09;89425;279;137669;-77
2023/09/25 03:39:02;;;;;;;17.40;14.30;;;;;;;15.98;95.42;101190.61;89305;281;23944;-76
2023/09/25 03:41:04;;;;;;;18.20;13.20;;;;;;;15.96;95.16;101192.76;89250;279;136941;-76
2023/09/25 03:43:06;;;;;;;16.40;14.00;;;;;;;15.98;95.10;101191.82;88913;283;25388;-76
2023/09/25 03:45:09;;;;;;;16.40;13.00;;;;;;;16.01;95.15;101192.48;89059;279;136897;-75
2023/09/25 03:47:12;;;;;;;19.20;12.80;;;;;;;16.04;95.02;101195.30;89112;277;23865;-75
2023/09/25 03:49:14;;;;;;;14.70;12.60;;;;;;;16.09;95.51;101194.70;88971;279;136450;-75
2023/09/25 03:51:15;;;;;;;14.40;12.70;;;;;;;16.16;95.48;101201.61;88782;275;22551;-76
2023/09/25 03:53:18;;;;;;;17.00;13.60;;;;;;;16.21;95.48;101201.38;88690;282;136711;-74
2023/09/25 03:55:20;;;;;;;14.00;12.40;;;;;;;16.25;94.95;101205.86;89057;274;25286;-77
2023/09/25 03:57:22;;;;;;;14.30;12.90;;;;;;;16.26;94.73;101206.39;89534;279;136528;-78
2023/09/25 03:59:23;;;;;;;21.80;14.40;;;;;;;16.30;95.06;101207.60;89435;282;25169;-76
2023/09/25 04:01:25;;;;;;;15.80;13.90;;;;;;;16.33;94.39;101210.96;89046;275;136998;-75
2023/09/25 04:03:27;;;;;;;15.90;12.60;;;;;;;16.34;94.04;101215.43;88995;275;22542;-75
2023/09/25 04:05:33;;;;;;;23.10;13.30;;;;;;;16.30;94.25;101217.87;88960;281;138716;-77
2023/09/25 04:07:35;;;;;;;13.30;11.60;;;;;;;16.25;94.48;101217.83;89036;281;22471;-77
2023/09/25 04:09:37;;;;;;;18.90;14.40;;;;;;;16.22;94.75;101221.24;89042;279;137246;-77
2023/09/25 04:11:39;;;;;;;16.80;13.50;;;;;;;16.24;95.62;101221.46;88581;280;22536;-77
2023/09/25 04:13:41;;;;;;;18.80;13.40;;;;;;;16.30;96.25;101227.01;88964;280;136916;-75
2023/09/25 04:15:43;;;;;;;15.90;12.60;;;;;;;16.39;95.98;101231.75;88824;274;25331;-76
2023/09/25 04:17:44;;;;;;;16.90;13.20;;;;;;;16.51;95.80;101230.02;88804;274;137792;-77
2023/09/25 04:19:48;;;;;;;17.70;12.50;;;;;;;16.64;95.54;101230.94;88525;274;24089;-76
2023/09/25 04:21:52;;;;;;;18.60;13.20;;;;;;;16.84;94.30;101233.44;88595;273;136555;-77
2023/09/25 04:23:54;;;;;;;19.80;13.30;;;;;;;17.07;93.20;101233.92;88592;277;25103;-77
2023/09/25 04:26:00;;;;;;;15.50;13.80;;;;;;;17.29;91.93;101239.11;88804;276;136355;-78
2023/09/25 04:28:05;;;;;;;18.10;13.50;;;;;;;17.50;90.13;101246.17;89039;276;137327;-74
2023/09/25 04:30:08;;;;;;;15.40;13.90;;;;;;;17.68;87.92;101255.37;89333;276;23712;-78
2023/09/25 04:32:11;;;;;;;15.00;13.50;;;;;;;17.83;86.63;101254.83;88471;276;136161;-75
2023/09/25 04:34:13;;;;;;;21.90;14.80;;;;;;;18.00;85.92;101259.91;88875;273;22569;-74
2023/09/25 04:36:14;;;;;;;20.80;12.80;;;;;;;18.13;85.51;101263.17;88807;273;136320;-76
2023/09/25 04:38:16;;;;;;;24.40;15.10;;;;;;;18.41;84.08;101266.56;88748;279;24101;-77
2023/09/25 04:40:22;;;;;;;22.00;15.70;;;;;;;18.67;81.95;101270.71;88718;274;136274;-71
2023/09/25 04:42:25;;;;;;;20.50;13.10;;;;;;;18.88;80.61;101273.65;88525;280;25096;-73
2023/09/25 04:44:27;;;;;;;23.60;14.60;;;;;;;19.14;79.13;101278.04;88563;279;137730;-74
2023/09/25 04:46:30;;;;;;;25.00;14.40;;;;;;;19.45;78.06;101278.23;88729;276;23088;-74
2023/09/25 04:48:36;;;;;;;21.50;13.50;;;;;;;19.73;75.73;101277.01;88604;275;136849;-73
2023/09/25 04:50:37;;;;;;;16.00;14.30;;;;;;;19.94;74.66;101274.86;88594;282;24856;-72
2023/09/25 04:52:41;;;;;;;18.60;12.60;;;;;;;20.15;73.50;101275.34;88422;275;136668;-74
2023/09/25 04:54:42;;;;;;;18.60;12.20;;;;;;;20.31;72.25;101262.45;88737;279;25237;-76
2023/09/25 04:56:46;;;;;;;15.60;13.70;;;;;;;20.68;70.80;101274.30;88775;283;136533;-78
2023/09/25 04:58:48;;;;;;;20.10;13.30;;;;;;;20.95;70.21;101275.10;88977;281;25207;-78
2023/09/25 05:00:53;;;;;;;18.00;13.60;;;;;;;21.15;69.28;101280.35;88889;276;137796;-78
2023/09/25 05:02:56;;;;;;;18.60;14.10;;;;;;;21.22;69.06;101277.64;88915;282;22530;-70
2023/09/25 05:04:58;;;;;;;21.00;12.90;;;;;;;21.41;68.79;101274.92;88461;279;136508;-68
2023/09/25 05:07:02;;;;;;;13.90;12.60;;;;;;;21.66;68.27;101274.94;88556;274;23808;-68
2023/09/25 05:09:05;;;;;;;20.40;13.10;;;;;;;22.00;66.70;101277.89;88700;277;136244;-67
2023/09/25 05:11:07;;;;;;;16.80;13.40;;;;;;;22.35;65.34;101277.80;88576;274;22819;-67
2023/09/25 05:13:09;;;;;;;19.20;13.50;;;;;;;22.65;64.46;101276.17;88729;275;136544;-69
2023/09/25 05:15:13;;;;;;;19.40;11.90;;;;;;;22.84;63.04;101280.66;88829;276;25124;-70
2023/09/25 05:17:14;;;;;;;16.10;11.70;;;;;;;22.89;62.37;101284.11;88728;279;136431;-69
2023/09/25 05:19:16;;;;;;;16.10;12.50;;;;;;;22.86;61.60;101287.00;89073;278;22538;-70
2023/09/25 05:21:18;;;;;;;16.70;12.30;;;;;;;22.73;61.91;101288.70;88428;275;136357;-71
2023/09/25 05:23:21;;;;;;;14.40;12.30;;;;;;;22.76;61.77;101289.23;88724;275;25877;-70
2023/09/25 05:25:23;;;;;;;20.30;12.10;;;;;;;22.69;61.46;101285.36;88803;275;136283;-71
2023/09/25 05:27:25;;;;;;;13.60;11.20;;;;;;;22.77;61.54;101295.33;88772;279;22537;-71
2023/09/25 05:29:27;;;;;;;14.60;11.20;;;;;;;22.85;61.20;101297.96;88640;274;136281;-71
2023/09/25 05:31:28;;;;;;;14.40;10.10;;;;;;;22.94;61.00;101300.23;88700;274;22526;-71
2023/09/25 05:33:30;;;;;;;11.70;10.50;;;;;;;23.06;60.40;101298.00;88610;275;136344;-73
2023/09/25 05:35:32;;;;;;;11.10;9.50;;;;;;;23.17;60.19;101295.82;88682;275;23927;-71
2023/09/25 05:37:35;;;;;;;17.20;10.30;;;;;;;23.39;59.56;101295.37;88613;282;136230;-69
2023/09/25 05:39:37;;;;;;;13.80;9.60;;;;;;;23.66;58.30;101297.48;88692;279;23712;-70
2023/09/25 05:41:38;;;;;;;14.40;9.90;;;;;;;23.82;57.22;101296.42;88736;281;136502;-69
2023/09/25 05:43:40;;;;;;;12.50;9.80;;;;;;;23.88;56.78;101299.05;88688;283;25180;-70
2023/09/25 05:45:43;;;;;;;12.60;9.40;;;;;;;24.00;56.57;101298.04;88570;275;137063;-70
2023/09/25 05:47:45;;;;;;;16.10;10.20;;;;;;;24.21;55.62;101301.25;88725;278;25280;-70
2023/09/25 05:49:47;;;;;;;12.00;9.30;;;;;;;24.42;54.80;101297.71;88573;275;137802;-71
2023/09/25 05:51:53;;;;;;;20.40;10.40;;;;;;;24.61;53.80;101299.71;88668;282;24036;-72
2023/09/25 05:53:55;;;;;;;12.90;9.10;;;;;;;24.78;53.11;101300.83;88501;279;137545;-70
2023/09/25 05:55:56;;;;;;;20.20;9.10;;;;;;;24.87;52.33;101302.60;88705;282;22550;-70
2023/09/25 05:57:58;;;;;;;11.20;8.60;;;;;;;24.88;52.11;101303.92;88705;274;136935;-70
2023/09/25 06:00:01;;;;;;;14.10;9.50;;;;;;;24.87;52.27;101306.58;88822;274;24048;-69
2023/09/25 06:02:07;;;;;;;13.20;8.90;;;;;;;24.86;52.54;101308.43;88774;275;22533;-69
2023/09/25 06:04:10;;;;;;;12.10;8.70;;;;;;;24.87;52.90;101309.86;88741;279;136421;-70
2023/09/25 06:06:12;;;;;;;10.40;8.90;;;;;;;24.95;52.64;101315.44;88803;280;24097;-70
2023/09/25 06:08:13;;;;;;;12.60;10.00;;;;;;;24.89;52.73;101317.29;88609;283;136433;-69
2023/09/25 06:10:17;;;;;;;12.10;9.70;;;;;;;24.84;53.39;101318.67;88834;274;22600;-69
2023/09/25 06:12:20;;;;;;;11.30;8.90;;;;;;;24.97;52.24;101320.90;88874;275;137150;-70
2023/09/25 06:14:21;;;;;;;13.00;9.20;;;;;;;24.94;51.64;101318.36;88639;276;26155;-70
2023/09/25 06:16:24;;;;;;;13.50;8.40;;;;;;;24.85;51.54;101315.35;88404;282;137306;-66
2023/09/25 06:18:29;;;;;;;9.60;8.60;;;;;;;24.78;51.56;101314.52;88460;276;22533;-68
2023/09/25 06:20:36;;;;;;;13.40;8.00;;;;;;;24.83;51.53;101318.27;88470;282;136976;-69
2023/09/25 06:22:38;;;;;;;17.90;8.00;;;;;;;24.93;51.38;101317.71;88690;273;23742;-69
2023/09/25 06:24:40;;;;;;;13.90;8.10;;;;;;;25.07;50.68;101321.78;88391;273;137743;-67
2023/09/25 06:26:46;;;;;;;14.90;8.60;;;;;;;25.16;50.19;101325.62;88409;280;22825;-67
2023/09/25 06:28:48;;;;;;;16.10;7.90;;;;;;;24.92;50.27;101328.93;88336;275;136258;-68
2023/09/25 06:30:50;;;;;;;14.90;8.10;;;;;;;24.47;50.93;101333.23;88427;278;22552;-67
2023/09/25 06:32:52;;;;;;;13.50;7.50;;;;;;;24.03;51.70;101332.48;88302;274;136158;-73
2023/09/25 06:34:54;;;;;;;15.40;7.60;;;;;;;23.66;52.97;101335.05;88368;276;25396;-69
2023/09/25 06:36:56;;;;;;;12.40;7.30;;;;;;;23.36;53.89;101333.95;88202;277;137674;-68
2023/09/25 06:38:58;;;;;;;11.40;6.70;;;;;;;23.04;54.23;101337.17;88378;280;25221;-68
2023/09/25 06:41:00;;;;;;;13.00;7.60;;;;;;;22.74;55.01;101342.95;88253;276;136540;-69
2023/09/25 06:43:02;;;;;;;9.20;6.90;;;;;;;22.41;55.96;101346.75;88413;282;22546;-68
2023/09/25 06:45:05;;;;;;;10.20;7.60;;;;;;;22.12;56.83;101346.55;88606;282;137879;-68
2023/09/25 06:47:07;;;;;;;14.60;7.80;;;;;;;21.86;57.85;101348.73;88630;275;22634;-69
2023/09/25 06:49:09;;;;;;;12.40;7.90;;;;;;;21.67;58.77;101349.13;88475;281;136295;-66
2023/09/25 06:51:11;;;;;;;10.30;7.60;;;;;;;21.59;59.63;101345.91;88555;281;24045;-71
2023/09/25 06:53:14;;;;;;;12.60;7.30;;;;;;;21.53;60.06;101347.73;88446;281;137795;-68
2023/09/25 06:55:16;;;;;;;7.70;6.90;;;;;;;21.47;60.42;101349.92;88779;275;23749;-65
2023/09/25 06:57:21;;;;;;;9.20;6.90;;;;;;;21.42;61.04;101352.28;88615;276;136339;-67
2023/09/25 06:59:23;;;;;;;12.10;6.70;;;;;;;21.40;61.36;101355.23;88932;280;22540;-67
2023/09/25 07:01:25;;;;;;;10.30;7.80;;;;;;;21.41;61.48;101359.48;88414;282;136554;-67
2023/09/25 07:03:27;;;;;;;16.80;7.10;;;;;;;21.42;62.19;101361.24;88436;283;22535;-71
2023/09/25 07:05:29;;;;;;;8.30;6.90;;;;;;;21.42;62.98;101363.17;88252;276;137628;-67
2023/09/25 07:07:31;;;;;;;7.40;6.70;;;;;;;21.41;63.88;101369.23;88393;282;22889;-67
2023/09/25 07:09:33;;;;;;;13.80;7.20;;;;;;;21.40;65.13;101370.30;88240;276;136379;-67
2023/09/25 07:11:36;;;;;;;9.30;7.40;;;;;;;21.41;66.60;101370.20;88379;279;22535;-69
2023/09/25 07:13:38;;;;;;;9.50;7.40;;;;;;;21.43;67.51;101368.34;88380;282;136133;-68
2023/09/25 07:15:39;;;;;;;11.60;7.40;;;;;;;21.45;68.60;101369.34;88486;282;22541;-69
2023/09/25 07:17:42;;;;;;;9.60;6.50;;;;;;;21.48;69.03;101372.20;88220;276;136895;-70
2023/09/25 07:19:44;;;;;;;9.60;7.40;;;;;;;21.55;70.32;101376.04;88364;276;22610;-70
2023/09/25 07:21:46;;;;;;;9.90;7.90;;;;;;;21.55;70.98;101375.20;88405;279;136067;-70
2023/09/25 07:23:48;;;;;;;8.70;7.40;;;;;;;21.54;72.17;101373.13;88401;275;25121;-70
2023/09/25 07:26:22;;;;;;;9.20;7.90;;;;;;;21.53;72.84;101371.60;88316;275;136411;-67
2023/09/25 07:28:24;;;;;;;8.10;7.40;;;;;;;21.61;74.53;101375.97;88154;284;136258;-67
2023/09/25 07:30:25;;;;;;;8.50;7.60;;;;;;;21.67;74.87;101375.19;88365;281;23869;-66
2023/09/25 07:32:28;;;;;;;8.20;6.90;;;;;;;21.73;75.19;101376.25;88290;283;135517;-68
2023/09/25 07:34:30;;;;;;;8.40;7.60;;;;;;;21.76;74.52;101377.23;88357;277;22605;-66
2023/09/25 07:36:32;;;;;;;9.30;7.90;;;;;;;21.83;73.41;101378.35;88284;285;136075;-68
2023/09/25 07:38:34;;;;;;;8.40;6.70;;;;;;;21.94;72.68;101376.86;88195;278;22539;-67
2023/09/25 07:40:38;;;;;;;11.70;6.70;;;;;;;22.02;70.42;101377.33;88168;278;136268;-68
2023/09/25 07:42:42;;;;;;;11.30;6.70;;;;;;;22.07;69.87;101382.05;88343;277;22730;-68
2023/09/25 07:44:44;;;;;;;11.10;8.40;;;;;;;22.13;70.08;101384.36;88273;276;135949;-70
2023/09/25 07:46:47;;;;;;;17.40;7.50;;;;;;;22.19;69.83;101387.25;88409;277;22634;-70
2023/09/25 07:48:49;;;;;;;12.70;6.90;;;;;;;22.28;69.48;101389.25;88539;277;136541;-70
2023/09/25 07:50:55;;;;;;;8.40;6.50;;;;;;;22.40;67.87;101396.55;88241;285;25414;-69
2023/09/25 07:52:58;;;;;;;18.30;7.30;;;;;;;22.47;67.37;101396.90;88121;277;136820;-69
2023/09/25 07:55:00;;;;;;;11.40;6.00;;;;;;;22.53;67.31;101394.53;89524;276;22531;-68
2023/09/25 07:57:02;;;;;;;14.30;6.20;;;;;;;22.60;66.42;101396.66;88058;278;136914;-69
2023/09/25 07:59:04;;;;;;;15.10;6.60;;;;;;;22.61;65.72;101396.68;88138;277;24167;-68
2023/09/25 08:01:08;;;;;;;9.60;6.00;;;;;;;22.60;65.58;101396.11;88139;280;136727;-73
2023/09/25 08:03:15;;;;;;;11.80;7.30;;;;;;;22.66;65.29;101396.39;88314;285;24040;-67
2023/09/25 08:05:21;;;;;;;8.80;5.60;;;;;;;22.74;64.90;101398.67;89330;277;138245;-70
2023/09/25 08:07:24;;;;;;;7.10;6.00;;;;;;;22.88;63.93;101399.36;88280;274;25264;-70
2023/09/25 08:09:25;;;;;;;8.50;5.70;;;;;;;22.98;62.54;101402.52;88318;282;137827;-69
2023/09/25 08:11:29;;;;;;;8.10;5.10;;;;;;;23.02;61.46;101401.10;88609;283;22514;-70
2023/09/25 08:13:31;;;;;;;8.10;6.60;;;;;;;23.00;61.06;101406.52;88245;282;137599;-68
2023/09/25 08:15:33;;;;;;;10.50;6.00;;;;;;;23.01;60.62;101408.92;88392;275;24906;-69
2023/09/25 08:17:36;;;;;;;8.80;5.50;;;;;;;23.01;59.38;101407.89;88242;280;136514;-70
2023/09/25 08:19:38;;;;;;;8.00;5.90;;;;;;;22.98;58.69;101405.33;88494;283;25172;-68
2023/09/25 08:21:40;;;;;;;6.70;5.20;;;;;;;22.96;58.75;101406.13;88331;279;136230;-68
2023/09/25 08:23:42;;;;;;;8.60;5.50;;;;;;;23.00;58.49;101407.77;88459;275;22815;-69
2023/09/25 08:25:44;;;;;;;8.60;5.40;;;;;;;23.06;58.19;101404.92;88220;279;137759;-71
2023/09/25 08:27:46;;;;;;;10.70;5.60;;;;;;;23.15;57.39;101407.95;88349;277;25541;-69
2023/09/25 08:29:48;;;;;;;17.00;5.60;;;;;;;23.22;57.44;101408.65;88308;283;136541;-71
2023/09/25 08:31:51;;;;;;;6.20;5.10;;;;;;;23.25;56.82;101401.79;88279;281;23787;-70
2023/09/25 08:33:53;;;;;;;10.60;4.70;;;;;;;23.30;56.55;101401.07;88418;280;135966;-71
2023/09/25 08:35:55;;;;;;;9.40;5.50;;;;;;;23.37;56.37;101405.20;88344;276;25086;-71
2023/09/25 08:37:58;;;;;;;8.90;5.20;;;;;;;23.38;55.85;101398.52;88336;277;136309;-68
2023/09/25 08:40:01;;;;;;;12.20;5.00;;;;;;;23.47;55.39;101407.11;88375;279;26125;-69
2023/09/25 08:42:04;;;;;;;11.10;5.50;;;;;;;23.50;55.46;101406.98;88198;276;136052;-69
2023/09/25 08:44:06;;;;;;;21.50;6.30;;;;;;;23.55;55.61;101407.38;88273;275;136428;-68
2023/09/25 08:46:08;;;;;;;13.50;5.20;;;;;;;23.62;55.74;101412.86;88629;274;23504;-68
2023/09/25 08:48:16;;;;;;;13.00;5.10;;;;;;;23.69;55.43;101414.77;88438;274;136639;-69
2023/09/25 08:50:19;;;;;;;9.80;5.00;;;;;;;23.79;55.44;101408.19;88487;276;25217;-69
2023/09/25 08:52:22;;;;;;;12.70;5.10;;;;;;;23.87;55.54;101412.11;88165;279;137236;-68
2023/09/25 08:54:24;;;;;;;5.80;4.70;;;;;;;23.97;55.18;101411.54;88518;278;25236;-68
2023/09/25 08:56:28;;;;;;;8.60;4.80;;;;;;;24.03;54.90;101414.13;88386;280;136282;-67
2023/09/25 08:58:30;;;;;;;8.30;4.00;;;;;;;24.05;54.75;101406.24;88354;280;25328;-69
2023/09/25 09:00:33;;;;;;;10.80;4.50;;;;;;;24.18;54.19;101416.77;88324;279;136335;-68
2023/09/25 09:02:36;;;;;;;16.20;4.30;;;;;;;24.22;53.85;101418.62;88571;274;26440;-72
2023/09/25 09:04:38;;;;;;;10.10;4.60;;;;;;;24.27;53.30;101419.23;88386;278;136300;-70
2023/09/25 09:06:40;;;;;;;12.20;4.40;;;;;;;24.31;52.80;101413.92;88426;280;22553;-74
2023/09/25 09:08:46;;;;;;;8.50;4.20;;;;;;;24.31;52.74;101412.23;88257;276;136767;-67
2023/09/25 09:10:48;;;;;;;5.50;3.60;;;;;;;24.32;53.16;101409.69;88511;276;24032;-72
2023/09/25 09:12:54;;;;;;;6.60;4.40;;;;;;;24.39;53.08;101409.88;88332;276;136172;-67
2023/09/25 09:15:04;;;;;;;9.30;3.80;;;;;;;24.42;52.64;101407.91;88420;279;25157;-69
2023/09/25 09:17:07;;;;;;;10.00;3.80;;;;;;;24.44;53.07;101406.41;88393;282;136206;-70
2023/09/25 09:19:09;;;;;;;11.80;4.80;;;;;;;24.46;53.19;101405.72;88380;278;24017;-70
2023/09/25 09:21:21;;;;;;;7.10;4.50;;;;;;;24.48;53.20;101401.00;88335;275;136506;-69
2023/09/25 09:23:50;;;;;;;8.40;6.00;;;;;;;24.55;54.52;101396.58;88513;275;26257;-70
2023/09/25 09:25:52;;;;;;;13.90;5.90;;;;;;;24.61;57.63;101399.04;88287;282;136391;-70